Xisha Dao, China
Current Conditions -  °F | °C
As of 8:00 AM on Tuesday 25 Nov 2014 (Local Time) from ZJSY Reporting Station
Clear Clear  
Wind Chill: 79°   Ceiling: Unl
Heat Index: 82°   Visibility: 6mi
Dew Point: 72°   Wind: 7mph
Humidity: 78%   Direction: 70°ENE
Pressure: 29.91"   Gusts: NA
Location:  16.83°N, 112.33°E
Report Text: ZJSY 250000Z 07003MPS CAVOK 26/22 Q1013 NOSIG
Loading
Personal Weather Stations






























Interactive Weather Map New forecast layout! Learn more

10-Day Weather Forecast

Advertisements
Track Severe Weather on mobile